Terminal Aerodrome Forecast
Issued by NWS

Home | Current Version | Previous Version | Text Only | Print | Product List | Glossary On
Versions: 1 2 3 4 5 6 7 8 9 10 11 12 13 14 15 16 17 18
382
FTUS43 KILX 162339 AAD
TAFCMI
TAF AMD
KCMI 162339Z 1700/1724 16011KT P6SM VCTS BKN100CB
     FM170900 19008KT P6SM OVC060
     FM171100 20008KT P6SM BKN025
     FM171700 22011KT P6SM BKN035=

USA.gov is the U.S. government's official web portal to all federal, state and local government web resources and services.